Overview Statistics Trail Chart Weather Telemetry Raw packets
 

This is the latest recevied weather packets stored in our database for station/object SQ9RHX-11. If no packets are shown the sender has not sent any weather packets the latest 10 day(s).

<< 4 5 6 7 8 9 10 >>
Time Temp. Humidity Pressure Rain* Wind** Luminosity Snow
1788223090 15.56° C 73% 1017.1 hPa - - - -
1788221307 16.11° C 71% 1017.3 hPa - - - -
1788219490 16.11° C 72% 1017.3 hPa - - - -
1788217690 16.67° C 73% 1017.3 hPa - - - -
1788215890 16.11° C 74% 1017.4 hPa - - - -
1788214091 16.67° C 74% 1017.2 hPa - - - -
1788212291 16.67° C 75% 1017 hPa - - - -
1788210492 16.67° C 78% 1016.4 hPa - - - -
1788208692 15° C 80% 1016.2 hPa - - - -
1788206894 16.11° C 79% 1016.3 hPa - - - -
1788203294 17.22° C 75% 1016 hPa - - - -
1788201495 17.78° C 72% 1016 hPa - - - -
1788199696 19.44° C 69% 1015.7 hPa - - - -
1788197897 20° C 66% 1015.5 hPa - - - -
1788196097 20.56° C 64% 1015.3 hPa - - - -
1788194298 22.22° C 60% 1015.2 hPa - - - -
1788192498 23.33° C 58% 1015.2 hPa - - - -
1788190699 23.89° C 59% 1015.3 hPa - - - -
1788188899 24.44° C 63% 1015.3 hPa - - - -
1788187099 22.78° C 70% 1015.4 hPa - - - -
1788185300 22.78° C 73% 1015.6 hPa - - - -
1788183500 21.11° C 81% 1015.7 hPa - - - -
1788181701 21.67° C 82% 1015.8 hPa - - - -
1788179902 20.56° C 89% 1015.9 hPa - - - -
1788178101 18.89° C 90% 1015.8 hPa - - - -

* Rain since midnight (hover to see other rain measurements)
** Current wind speed in m/s (hover to see current wind gust speed)